createdAt,value
2023-04-03T00:01:35.457Z,91408.41
2023-04-03T00:04:09.965Z,91405.03
2023-04-03T00:06:42.960Z,91408.41
2023-04-03T00:09:15.298Z,91405.88
2023-04-03T00:11:47.586Z,91405.34
2023-04-03T00:14:19.994Z,91405.13
2023-04-03T00:16:52.333Z,91404.84
2023-04-03T00:19:24.706Z,91402.81
2023-04-03T00:21:57.712Z,91399.06
2023-04-03T00:24:30.010Z,91398.81
2023-04-03T00:27:02.310Z,91400.75
2023-04-03T00:29:34.973Z,91403.53
2023-04-03T00:32:07.267Z,91402.53
2023-04-03T00:34:39.670Z,91400.75
2023-04-03T00:37:12.659Z,91403.84
2023-04-03T00:39:44.942Z,91401.06
2023-04-03T00:42:17.661Z,91379.69
2023-04-03T00:45:29.409Z,91400.19
2023-04-03T00:48:06.705Z,91377.41
2023-04-03T00:50:41.863Z,91407.81
2023-04-03T00:53:18.484Z,91403.78
2023-04-03T00:55:52.768Z,91404.34
2023-04-03T00:58:34.040Z,91406.19
2023-04-03T01:01:10.982Z,91407.53
2023-04-03T01:03:43.397Z,91399.22
2023-04-03T01:06:19.923Z,91409.59
2023-04-03T01:08:55.591Z,91409.06
2023-04-03T01:11:28.027Z,91403.91
2023-04-03T01:14:02.150Z,91402.06
2023-04-03T01:16:35.120Z,91409.97
2023-04-03T01:19:15.213Z,91401.81
2023-04-03T01:22:03.695Z,91384.59
2023-04-03T01:24:39.204Z,91387.31
2023-04-03T01:27:13.756Z,91397.88
2023-04-03T01:29:46.652Z,91394.75
2023-04-03T01:32:19.697Z,91400.13
2023-04-03T01:34:52.046Z,91396.78
2023-04-03T01:37:24.354Z,91399.66
2023-04-03T01:39:56.938Z,91400.91
2023-04-03T01:42:29.827Z,91392.69
2023-04-03T01:45:02.253Z,91393.22
2023-04-03T01:47:35.531Z,91387.00
2023-04-03T01:50:08.481Z,91402.22
2023-04-03T01:52:40.908Z,91395.78
2023-04-03T01:55:13.269Z,91394.31
2023-04-03T01:57:45.624Z,91389.66
2023-04-03T02:00:18.289Z,91395.06
2023-04-03T02:02:51.324Z,91393.28
2023-04-03T02:05:23.906Z,91392.06
2023-04-03T02:07:56.682Z,91388.44
2023-04-03T02:10:29.074Z,91386.72
2023-04-03T02:13:02.654Z,91390.31
2023-04-03T02:15:34.986Z,91383.13
2023-04-03T02:18:08.353Z,91391.66
2023-04-03T02:20:40.683Z,91389.59
2023-04-03T02:23:13.052Z,91388.34
2023-04-03T02:25:45.644Z,91367.06
2023-04-03T02:28:17.935Z,91374.00
2023-04-03T02:30:50.238Z,91373.47
2023-04-03T02:33:23.272Z,91371.19
2023-04-03T02:35:57.424Z,91365.50
2023-04-03T02:38:30.014Z,91371.25
2023-04-03T02:41:03.214Z,91367.88
2023-04-03T02:43:37.688Z,91368.94
2023-04-03T02:46:11.105Z,91368.94
2023-04-03T02:48:44.080Z,91360.75
2023-04-03T02:51:16.387Z,91362.59
2023-04-03T02:53:48.771Z,91351.50
2023-04-03T02:56:25.003Z,91353.78
2023-04-03T02:58:57.303Z,91344.34
2023-04-03T03:01:31.865Z,91353.03
2023-04-03T03:04:04.907Z,91347.13
2023-04-03T03:06:37.347Z,91349.47
2023-04-03T03:09:09.736Z,91342.97
2023-04-03T03:11:52.201Z,91343.44
2023-04-03T03:14:24.676Z,91339.06
2023-04-03T03:16:57.002Z,91332.66
2023-04-03T03:19:30.131Z,91336.00
2023-04-03T03:22:02.943Z,91335.13
2023-04-03T03:24:35.239Z,91330.75
2023-04-03T03:27:07.487Z,91328.84
2023-04-03T03:29:39.892Z,91333.13
2023-04-03T03:32:12.375Z,91335.34
2023-04-03T03:34:45.498Z,91337.34
2023-04-03T03:37:17.808Z,91338.88
2023-04-03T03:39:50.140Z,91338.38
2023-04-03T03:42:22.951Z,91332.22
2023-04-03T03:44:55.843Z,91325.81
2023-04-03T03:47:28.210Z,91326.56
2023-04-03T03:50:01.640Z,91328.81
2023-04-03T03:52:34.254Z,91336.06
2023-04-03T03:55:07.646Z,91333.22
2023-04-03T03:57:42.120Z,91328.13
2023-04-03T04:00:16.607Z,91320.41
2023-04-03T04:02:53.196Z,91329.34
2023-04-03T04:05:28.966Z,91322.53
2023-04-03T04:08:01.466Z,91323.19
2023-04-03T04:10:34.254Z,91320.84
2023-04-03T04:13:06.780Z,91330.00
2023-04-03T04:15:39.613Z,91337.38
2023-04-03T04:18:12.510Z,91339.06
2023-04-03T04:20:47.599Z,91341.81
2023-04-03T04:23:21.964Z,91344.34
2023-04-03T04:25:55.674Z,91338.88
2023-04-03T04:28:28.454Z,91334.13
2023-04-03T04:31:02.526Z,91340.72
2023-04-03T04:33:35.982Z,91342.69
2023-04-03T04:36:11.301Z,91351.88
2023-04-03T04:38:44.518Z,91356.63
2023-04-03T04:41:18.051Z,91350.06
2023-04-03T04:43:50.750Z,91350.66
2023-04-03T04:46:23.679Z,91354.69
2023-04-03T04:49:00.990Z,91359.31
2023-04-03T04:51:48.323Z,91363.09
2023-04-03T04:54:26.258Z,91362.69
2023-04-03T04:56:59.120Z,91374.78
2023-04-03T04:59:32.606Z,91373.44
2023-04-03T05:02:05.072Z,91376.78
2023-04-03T05:04:37.789Z,91371.06
2023-04-03T05:07:16.260Z,91377.38
2023-04-03T05:09:48.646Z,91379.66
2023-04-03T05:12:22.963Z,91387.50
2023-04-03T05:15:01.110Z,91383.97
2023-04-03T05:17:35.604Z,91395.31
2023-04-03T05:20:09.917Z,91389.66
2023-04-03T05:22:43.270Z,91388.75
2023-04-03T05:25:16.196Z,91395.38
2023-04-03T05:27:50.263Z,91394.72
2023-04-03T05:30:23.136Z,91390.72
2023-04-03T05:32:55.906Z,91385.41
2023-04-03T05:35:39.746Z,91380.63
2023-04-03T05:38:13.203Z,91382.41
2023-04-03T05:40:45.743Z,91382.47
2023-04-03T05:43:18.105Z,91373.84
2023-04-03T05:45:51.814Z,91374.41
2023-04-03T05:48:26.163Z,91371.53
2023-04-03T05:50:59.383Z,91374.69
2023-04-03T05:53:37.159Z,91360.91
2023-04-03T05:56:11.193Z,91370.59
2023-04-03T05:58:45.950Z,91366.38
2023-04-03T06:01:18.318Z,91367.53
2023-04-03T06:03:51.204Z,91364.88
2023-04-03T06:06:24.067Z,91357.09
2023-04-03T06:08:57.424Z,91354.97
2023-04-03T06:11:30.333Z,91344.81
2023-04-03T06:14:03.437Z,91338.38
2023-04-03T06:16:38.077Z,91342.78
2023-04-03T06:19:13.504Z,91334.72
2023-04-03T06:21:51.143Z,91351.22
2023-04-03T06:24:25.479Z,91353.81
2023-04-03T06:26:58.795Z,91342.81
2023-04-03T06:29:31.496Z,91341.84
2023-04-03T06:32:03.769Z,91345.41
2023-04-03T06:34:36.038Z,91343.09
2023-04-03T06:37:11.553Z,91351.53
2023-04-03T06:39:45.508Z,91357.66
2023-04-03T06:42:17.991Z,91349.97
2023-04-03T06:45:00.987Z,91345.78
2023-04-03T06:47:33.394Z,91354.19
2023-04-03T06:50:07.571Z,91354.56
2023-04-03T06:52:40.434Z,91358.91
2023-04-03T06:55:13.661Z,91362.94
2023-04-03T06:57:45.901Z,91353.31
2023-04-03T07:00:19.201Z,91366.00
2023-04-03T07:02:51.881Z,91370.38
2023-04-03T07:05:25.094Z,91364.06
2023-04-03T07:07:57.400Z,91367.31
2023-04-03T07:10:31.039Z,91370.69
2023-04-03T07:13:03.691Z,91364.03
2023-04-03T07:15:37.565Z,91368.81
2023-04-03T07:18:10.723Z,91373.63
2023-04-03T07:20:43.208Z,91367.09
2023-04-03T07:23:15.698Z,91378.56
2023-04-03T07:25:50.412Z,91362.31
2023-04-03T07:28:23.519Z,91359.84
2023-04-03T07:31:04.997Z,91358.38
2023-04-03T07:33:38.395Z,91345.69
2023-04-03T07:36:15.960Z,91357.47
2023-04-03T07:38:48.927Z,91347.88
2023-04-03T07:41:23.259Z,91349.00
2023-04-03T07:43:56.869Z,91338.09
2023-04-03T07:46:29.208Z,91335.63
2023-04-03T07:49:02.091Z,91337.19
2023-04-03T07:51:35.025Z,91332.50
2023-04-03T07:54:07.390Z,91333.97
2023-04-03T07:56:40.405Z,91330.59
2023-04-03T07:59:12.727Z,91317.97
2023-04-03T08:01:45.040Z,91323.78
2023-04-03T08:04:17.440Z,91312.75
2023-04-03T08:06:49.835Z,91322.56
2023-04-03T08:09:22.442Z,91320.78
2023-04-03T08:11:55.589Z,91313.00
2023-04-03T08:14:27.922Z,91320.97
2023-04-03T08:17:00.903Z,91320.78
2023-04-03T08:19:33.355Z,91321.44
2023-04-03T08:22:06.531Z,91320.28
2023-04-03T08:24:39.400Z,91323.34
2023-04-03T08:27:16.669Z,91320.88
2023-04-03T08:29:49.104Z,91321.19
2023-04-03T08:32:21.461Z,91321.78
2023-04-03T08:34:53.940Z,91311.22
2023-04-03T08:37:26.812Z,91308.94
2023-04-03T08:39:59.551Z,91311.38
2023-04-03T08:42:44.423Z,91310.63
2023-04-03T08:45:22.338Z,91305.44
2023-04-03T08:48:01.598Z,91307.16
2023-04-03T08:50:39.984Z,91302.53
2023-04-03T08:53:16.344Z,91309.28
2023-04-03T08:55:50.746Z,91300.72
2023-04-03T08:58:26.928Z,91298.53
2023-04-03T09:01:01.965Z,91284.63
2023-04-03T09:03:38.887Z,91288.63
2023-04-03T09:06:15.576Z,91287.19
2023-04-03T09:08:52.346Z,91275.72
2023-04-03T09:11:27.776Z,91271.31
2023-04-03T09:14:08.153Z,91260.63
2023-04-03T09:16:57.159Z,91254.34
2023-04-03T09:19:42.242Z,91252.84
2023-04-03T09:22:18.078Z,91247.50
2023-04-03T09:24:58.394Z,91239.53
2023-04-03T09:27:31.047Z,91241.06
2023-04-03T09:30:07.183Z,91242.59
2023-04-03T09:32:39.542Z,91231.59
2023-04-03T09:35:23.487Z,91218.88
2023-04-03T09:38:15.432Z,91219.63
2023-04-03T09:40:51.455Z,91222.06
2023-04-03T09:43:29.495Z,91199.56
2023-04-03T09:46:29.637Z,91215.00
2023-04-03T09:49:09.299Z,91220.19
2023-04-03T09:51:41.992Z,91206.06
2023-04-03T09:54:30.993Z,91203.75
2023-04-03T09:57:08.970Z,91207.84
2023-04-03T09:59:48.994Z,91204.78
2023-04-03T10:02:24.096Z,91208.91
2023-04-03T10:05:08.952Z,91200.03
2023-04-03T10:07:48.692Z,91200.50
2023-04-03T10:10:26.922Z,91196.69
2023-04-03T10:13:06.347Z,91191.00
2023-04-03T10:15:45.265Z,91184.41
2023-04-03T10:18:33.921Z,91191.72
2023-04-03T10:21:24.704Z,91190.31
2023-04-03T10:24:09.357Z,91187.09
2023-04-03T10:26:50.854Z,91189.56
2023-04-03T10:29:34.858Z,91177.69
2023-04-03T10:32:44.071Z,91178.88
2023-04-03T10:35:29.566Z,91169.13
2023-04-03T10:38:10.327Z,91169.75
2023-04-03T10:40:51.037Z,91174.13
2023-04-03T10:43:33.720Z,91161.63
2023-04-03T10:46:13.273Z,91149.19
2023-04-03T10:49:06.235Z,91168.38
2023-04-03T10:51:44.212Z,91159.78
2023-04-03T10:54:24.215Z,91162.25
2023-04-03T10:57:11.665Z,91158.72
2023-04-03T10:59:47.946Z,91167.88
2023-04-03T11:02:25.266Z,91162.44
2023-04-03T11:05:02.854Z,91169.69
2023-04-03T11:07:41.567Z,91169.56
2023-04-03T11:10:19.694Z,91168.22
2023-04-03T11:12:57.496Z,91178.78
2023-04-03T11:15:33.812Z,91175.91
2023-04-03T11:18:12.260Z,91161.00
2023-04-03T11:20:53.080Z,91177.44
2023-04-03T11:23:35.587Z,91173.06
2023-04-03T11:26:14.773Z,91173.59
2023-04-03T11:28:47.323Z,91178.69
2023-04-03T11:31:41.843Z,91169.22
2023-04-03T11:34:31.920Z,91181.50
2023-04-03T11:37:13.272Z,91176.94
2023-04-03T11:39:55.761Z,91184.63
2023-04-03T11:42:34.609Z,91186.16
2023-04-03T11:45:35.683Z,91174.97
2023-04-03T11:49:05.949Z,91168.53
2023-04-03T11:55:58.289Z,91160.03
2023-04-03T11:58:55.167Z,91174.22
2023-04-03T12:02:04.870Z,91177.25
2023-04-03T12:05:46.890Z,91159.22
2023-04-03T12:08:48.176Z,91158.88
2023-04-03T12:11:39.074Z,91157.31
2023-04-03T12:14:52.200Z,91154.59
2023-04-03T12:17:44.018Z,91138.56
2023-04-03T12:21:10.746Z,91133.06
2023-04-03T12:24:22.984Z,91114.31
2023-04-03T12:27:29.460Z,91117.63
2023-04-03T12:30:43.759Z,91110.56
2023-04-03T12:37:08.951Z,91108.25
2023-04-03T12:40:15.744Z,91084.66
2023-04-03T12:43:22.241Z,91069.22
2023-04-03T12:46:16.536Z,91051.81
2023-04-03T12:49:04.998Z,91061.16
2023-04-03T12:51:55.377Z,91055.63
2023-04-03T12:54:36.710Z,91058.22
2023-04-03T12:57:37.285Z,91063.81
2023-04-03T13:00:40.678Z,91093.25
2023-04-03T13:03:33.543Z,91091.22
2023-04-03T13:06:26.600Z,91068.25
2023-04-03T13:09:24.796Z,91069.56
2023-04-03T13:12:20.318Z,91071.66
2023-04-03T13:15:04.646Z,91074.69
2023-04-03T13:17:53.659Z,91046.59
2023-04-03T13:20:52.422Z,91053.72
2023-04-03T13:23:31.160Z,91057.31
2023-04-03T13:26:16.199Z,91066.81
2023-04-03T13:28:53.872Z,91042.03
2023-04-03T13:31:30.970Z,91026.09
2023-04-03T13:34:07.218Z,91032.84
2023-04-03T13:36:42.992Z,91023.03
2023-04-03T13:39:24.201Z,91019.94
2023-04-03T13:41:59.252Z,91025.66
2023-04-03T13:44:36.933Z,91026.72
2023-04-03T13:47:19.021Z,91036.72
2023-04-03T13:50:04.574Z,91021.88
2023-04-03T13:52:42.916Z,91012.84
2023-04-03T13:55:25.815Z,91014.91
2023-04-03T13:58:02.198Z,91012.78
2023-04-03T14:00:38.757Z,91026.03
2023-04-03T14:03:20.376Z,91028.72
2023-04-03T14:05:53.563Z,91026.03
2023-04-03T14:08:39.617Z,91018.56
2023-04-03T14:11:16.851Z,91013.75
2023-04-03T14:13:50.630Z,91000.34
2023-04-03T14:16:27.568Z,91001.09
2023-04-03T14:19:00.148Z,91003.66
2023-04-03T14:21:33.094Z,90974.06
2023-04-03T14:24:06.819Z,90981.22
2023-04-03T14:26:39.391Z,90977.38
2023-04-03T14:29:12.794Z,90980.84
2023-04-03T14:31:47.565Z,90974.88
2023-04-03T14:34:20.037Z,90979.50
2023-04-03T14:36:54.059Z,90973.81
2023-04-03T14:39:27.275Z,90977.97
2023-04-03T14:41:59.818Z,90974.31
2023-04-03T14:44:32.226Z,90975.75
2023-04-03T14:47:04.733Z,90981.91
2023-04-03T14:49:40.057Z,90969.84
2023-04-03T14:52:19.626Z,90975.22
2023-04-03T14:54:54.245Z,90969.25
2023-04-03T14:57:28.567Z,90962.16
2023-04-03T15:00:03.059Z,90965.25
2023-04-03T15:02:37.883Z,90947.72
2023-04-03T15:05:11.913Z,90969.25
2023-04-03T15:07:47.970Z,90973.97
2023-04-03T15:10:23.931Z,90971.25
2023-04-03T15:12:57.585Z,90971.50
2023-04-03T15:15:30.781Z,90948.22
2023-04-03T15:18:03.470Z,90931.81
2023-04-03T15:20:35.960Z,90943.03
2023-04-03T15:23:09.507Z,90932.09
2023-04-03T15:25:43.483Z,90928.28
2023-04-03T15:28:22.793Z,90925.22
2023-04-03T15:30:55.554Z,90913.00
2023-04-03T15:33:28.402Z,90917.75
2023-04-03T15:36:07.396Z,90901.41
2023-04-03T15:38:44.279Z,90908.63
2023-04-03T15:41:17.362Z,90919.28
2023-04-03T15:43:49.676Z,90913.44
2023-04-03T15:46:22.135Z,90911.81
2023-04-03T15:48:54.801Z,90902.16
2023-04-03T15:51:27.128Z,90901.31
2023-04-03T15:53:59.475Z,90908.38
2023-04-03T15:56:32.628Z,90903.00
2023-04-03T15:59:05.063Z,90895.19
2023-04-03T16:01:39.224Z,90904.06
2023-04-03T16:04:11.909Z,90903.00
2023-04-03T16:06:44.536Z,90908.56
2023-04-03T16:09:17.315Z,90918.50
2023-04-03T16:11:56.534Z,90928.75
2023-04-03T16:14:30.701Z,90919.47
2023-04-03T16:17:04.014Z,90916.03
2023-04-03T16:19:36.454Z,90924.16
2023-04-03T16:22:09.081Z,90916.03
2023-04-03T16:24:41.514Z,90916.91
2023-04-03T16:27:14.801Z,90902.16
2023-04-03T16:29:47.505Z,90907.25
2023-04-03T16:32:20.149Z,90899.66
2023-04-03T16:34:52.968Z,90875.31
2023-04-03T16:37:27.100Z,90848.13
2023-04-03T16:40:01.377Z,90843.91
2023-04-03T16:42:37.235Z,90838.00
2023-04-03T16:45:11.484Z,90835.59
2023-04-03T16:47:44.002Z,90843.44
2023-04-03T16:50:16.701Z,90824.22
2023-04-03T16:52:49.370Z,90830.16
2023-04-03T16:55:21.839Z,90825.88
2023-04-03T16:57:55.641Z,90827.88
2023-04-03T17:00:28.269Z,90810.06
2023-04-03T17:03:01.122Z,90818.88
2023-04-03T17:05:33.648Z,90807.97
2023-04-03T17:08:06.257Z,90806.31
2023-04-03T17:10:39.643Z,90808.03
2023-04-03T17:13:13.188Z,90813.09
2023-04-03T17:15:45.771Z,90813.84
2023-04-03T17:18:18.283Z,90797.34
2023-04-03T17:20:50.661Z,90806.94
2023-04-03T17:23:24.650Z,90789.91
2023-04-03T17:25:57.191Z,90796.34
2023-04-03T17:28:30.613Z,90817.22
2023-04-03T17:31:03.710Z,90808.28
2023-04-03T17:33:36.223Z,90818.03
2023-04-03T17:36:08.901Z,90794.25
2023-04-03T17:38:41.985Z,90816.88
2023-04-03T17:41:15.292Z,90819.97
2023-04-03T17:43:49.073Z,90819.47
2023-04-03T17:46:22.396Z,90780.16
2023-04-03T17:48:55.576Z,90811.34
2023-04-03T17:51:33.566Z,90797.72
2023-04-03T17:54:06.594Z,90796.19
2023-04-03T17:56:39.153Z,90787.00
2023-04-03T17:59:13.109Z,90785.16
2023-04-03T18:01:47.431Z,90803.53
2023-04-03T18:04:20.817Z,90806.25
2023-04-03T18:06:56.066Z,90777.50
2023-04-03T18:09:31.801Z,90788.34
2023-04-03T18:12:07.692Z,90778.97
2023-04-03T18:14:42.069Z,90792.66
2023-04-03T18:17:16.103Z,90772.69
2023-04-03T18:19:50.931Z,90770.22
2023-04-03T18:22:25.421Z,90781.97
2023-04-03T18:24:58.679Z,90791.97
2023-04-03T18:27:31.803Z,90778.75
2023-04-03T18:30:13.354Z,90781.72
2023-04-03T18:32:49.909Z,90782.72
2023-04-03T18:35:23.260Z,90771.00
2023-04-03T18:37:56.717Z,90769.69
2023-04-03T18:40:31.045Z,90767.16
2023-04-03T18:43:03.663Z,90747.78
2023-04-03T18:45:36.748Z,90725.75
2023-04-03T18:48:09.929Z,90726.88
2023-04-03T18:50:43.355Z,90757.44
2023-04-03T18:53:16.014Z,90754.06
2023-04-03T18:55:49.109Z,90738.78
2023-04-03T18:58:21.780Z,90745.19
2023-04-03T19:00:55.795Z,90738.22
2023-04-03T19:03:31.051Z,90725.97
2023-04-03T19:06:05.538Z,90724.69
2023-04-03T19:08:39.141Z,90718.00
2023-04-03T19:11:12.359Z,90742.03
2023-04-03T19:14:03.816Z,90715.13
2023-04-03T19:16:39.796Z,90709.28
2023-04-03T19:19:12.985Z,90718.94
2023-04-03T19:21:45.499Z,90712.53
2023-04-03T19:24:17.987Z,90708.59
2023-04-03T19:26:50.452Z,90700.41
2023-04-03T19:29:22.822Z,90715.75
2023-04-03T19:31:55.953Z,90713.50
2023-04-03T19:34:28.871Z,90726.75
2023-04-03T19:37:01.894Z,90714.63
2023-04-03T19:39:36.494Z,90712.38
2023-04-03T19:42:09.154Z,90693.22
2023-04-03T19:44:42.967Z,90696.09
2023-04-03T19:47:18.265Z,90684.22
2023-04-03T19:49:50.678Z,90692.09
2023-04-03T19:52:22.983Z,90676.19
2023-04-03T19:54:55.311Z,90658.59
2023-04-03T19:57:27.699Z,90658.78
2023-04-03T20:00:00.387Z,90677.59
2023-04-03T20:02:33.596Z,90673.00
2023-04-03T20:05:07.104Z,90682.75
2023-04-03T20:07:39.434Z,90698.72
2023-04-03T20:10:11.760Z,90684.50
2023-04-03T20:12:44.110Z,90685.97
2023-04-03T20:15:17.570Z,90708.84
2023-04-03T20:17:50.593Z,90706.34
2023-04-03T20:20:22.971Z,90696.19
2023-04-03T20:22:56.224Z,90695.25
2023-04-03T20:25:48.109Z,90693.31
2023-04-03T20:28:21.860Z,90693.44
2023-04-03T20:30:55.028Z,90692.06
2023-04-03T20:33:28.267Z,90704.19
2023-04-03T20:36:01.763Z,90690.19
2023-04-03T20:38:34.117Z,90692.19
2023-04-03T20:41:07.080Z,90686.81
2023-04-03T20:43:42.031Z,90683.03
2023-04-03T20:46:18.641Z,90685.03
2023-04-03T20:48:52.026Z,90694.63
2023-04-03T20:51:24.493Z,90687.91
2023-04-03T20:53:57.172Z,90696.25
2023-04-03T20:56:32.389Z,90706.59
2023-04-03T20:59:05.154Z,90712.03
2023-04-03T21:01:37.953Z,90716.94
2023-04-03T21:04:16.327Z,90723.28
2023-04-03T21:07:26.715Z,90739.34
2023-04-03T21:10:36.598Z,90739.34
2023-04-03T21:13:46.429Z,90709.22
2023-04-03T21:16:19.386Z,90681.53
2023-04-03T21:19:06.108Z,90663.91
2023-04-03T21:21:39.133Z,90650.34
2023-04-03T21:24:12.497Z,90642.59
2023-04-03T21:26:45.348Z,90637.44
2023-04-03T21:29:17.728Z,90616.81
2023-04-03T21:31:53.074Z,90617.50
2023-04-03T21:34:27.334Z,90595.44
2023-04-03T21:37:03.370Z,90600.84
2023-04-03T21:39:35.959Z,90605.13
2023-04-03T21:42:08.288Z,90594.63
2023-04-03T21:44:40.866Z,90596.78
2023-04-03T21:47:13.251Z,90590.88
2023-04-03T21:49:46.914Z,90602.22
2023-04-03T21:52:19.268Z,90588.56
2023-04-03T21:54:51.912Z,90592.69
2023-04-03T21:57:24.273Z,90581.63
2023-04-03T21:59:56.716Z,90564.25
2023-04-03T22:02:30.739Z,90574.59
2023-04-03T22:05:04.237Z,90568.97
2023-04-03T22:07:36.624Z,90571.84
2023-04-03T22:10:09.113Z,90570.91
2023-04-03T22:12:41.746Z,90563.75
2023-04-03T22:15:14.179Z,90578.34
2023-04-03T22:17:46.660Z,90573.78
2023-04-03T22:20:19.925Z,90581.28
2023-04-03T22:22:52.282Z,90570.59
2023-04-03T22:25:24.983Z,90558.28
2023-04-03T22:27:57.386Z,90566.50
2023-04-03T22:30:30.118Z,90547.19
2023-04-03T22:33:02.579Z,90543.09
2023-04-03T22:35:35.671Z,90543.59
2023-04-03T22:38:08.036Z,90545.63
2023-04-03T22:40:40.674Z,90541.25
2023-04-03T22:43:13.477Z,90507.06
2023-04-03T22:45:49.570Z,90509.16
2023-04-03T22:48:22.900Z,90514.31
2023-04-03T22:50:56.162Z,90546.03
2023-04-03T22:53:28.582Z,90528.53
2023-04-03T22:56:02.242Z,90536.72
2023-04-03T22:58:34.750Z,90535.69
2023-04-03T23:01:09.397Z,90529.44
2023-04-03T23:03:42.544Z,90511.03
2023-04-03T23:06:15.693Z,90517.09
2023-04-03T23:08:48.162Z,90517.16
2023-04-03T23:11:20.736Z,90522.03
2023-04-03T23:13:53.106Z,90532.38
2023-04-03T23:16:25.726Z,90538.00
2023-04-03T23:18:58.375Z,90528.72
2023-04-03T23:21:31.545Z,90522.47
2023-04-03T23:24:04.217Z,90534.50
2023-04-03T23:26:36.692Z,90538.75
2023-04-03T23:29:09.067Z,90528.25
2023-04-03T23:31:41.574Z,90529.75
2023-04-03T23:34:14.091Z,90526.25
2023-04-03T23:36:47.461Z,90535.41
2023-04-03T23:43:18.012Z,90545.56
2023-04-03T23:45:50.907Z,90520.31
2023-04-03T23:48:23.214Z,90527.28
2023-04-03T23:50:55.533Z,90529.00
2023-04-03T23:53:28.028Z,90536.44
2023-04-03T23:56:01.052Z,90537.22
2023-04-03T23:58:34.145Z,90541.06
